createdAt,value
2023-04-18T00:01:28.649Z,74.41
2023-04-18T00:07:48.650Z,74.91
2023-04-18T00:14:11.911Z,75.24
2023-04-18T00:20:31.618Z,76.04
2023-04-18T00:26:54.612Z,76.08
2023-04-18T00:33:14.618Z,75.87
2023-04-18T00:39:37.554Z,75.83
2023-04-18T00:45:57.642Z,76.15
2023-04-18T00:52:20.668Z,76.32
2023-04-18T00:58:40.633Z,77.08
2023-04-18T01:05:03.612Z,77.03
2023-04-18T01:11:23.743Z,76.77
2023-04-18T01:17:46.667Z,77.32
2023-04-18T01:24:06.642Z,77.6
2023-04-18T01:30:29.643Z,77.57
2023-04-18T01:36:49.647Z,77.92
2023-04-18T01:43:12.632Z,77.93
2023-04-18T01:49:32.666Z,77.94
2023-04-18T01:55:55.594Z,78.34
2023-04-18T02:02:15.827Z,78.31
2023-04-18T02:08:38.708Z,78.34
2023-04-18T02:14:58.582Z,78.53
2023-04-18T02:21:21.717Z,78.62
2023-04-18T02:27:41.624Z,78.69
2023-04-18T02:34:04.610Z,78.77
2023-04-18T02:40:24.576Z,79.43
2023-04-18T02:46:47.798Z,79.63
2023-04-18T02:53:07.641Z,79.53
2023-04-18T02:59:30.667Z,79.46
2023-04-18T03:05:50.627Z,79.91
2023-04-18T03:21:24.525Z,80.66
2023-04-18T03:27:44.565Z,80.8
2023-04-18T03:34:07.623Z,80.61
2023-04-18T03:40:27.613Z,80.46
2023-04-18T03:46:50.617Z,80.29
2023-04-18T03:53:10.624Z,81.49
2023-04-18T03:59:33.623Z,81.32
2023-04-18T04:05:53.624Z,81.27
2023-04-18T04:12:16.629Z,80.62
2023-04-18T04:18:36.740Z,81.22
2023-04-18T04:24:59.620Z,81.66
2023-04-18T04:31:19.642Z,81.94
2023-04-18T04:37:42.621Z,81.49
2023-04-18T04:44:02.623Z,81.21
2023-04-18T04:50:25.600Z,80.74
2023-04-18T04:56:45.604Z,80.74
2023-04-18T05:03:08.975Z,81.04
2023-04-18T05:09:28.591Z,80.72
2023-04-18T05:15:51.662Z,80.24
2023-04-18T05:22:11.615Z,79.78
2023-04-18T05:28:34.576Z,79.76
2023-04-18T05:34:54.625Z,79.14
2023-04-18T05:41:17.709Z,78.96
2023-04-18T05:47:37.708Z,78.52
2023-04-18T05:54:00.699Z,78.44
2023-04-18T06:00:20.573Z,78.39
2023-04-18T06:06:43.683Z,78.89
2023-04-18T06:13:03.605Z,77.63
2023-04-18T06:19:26.605Z,76.83
2023-04-18T06:25:46.648Z,75.61
2023-04-18T06:32:09.645Z,76.03
2023-04-18T06:38:29.647Z,75.46
2023-04-18T06:44:52.619Z,74.85
2023-04-18T06:51:12.642Z,73.85
2023-04-18T06:57:35.663Z,72.43
2023-04-18T07:03:55.655Z,71.76
2023-04-18T07:10:18.960Z,70.65
2023-04-18T07:16:38.616Z,70.91
2023-04-18T07:23:01.591Z,68.71
2023-04-18T07:29:21.672Z,68.54
2023-04-18T07:35:44.607Z,67.79
2023-04-18T07:42:04.623Z,67.52
2023-04-18T07:48:27.609Z,67.19
2023-04-18T07:54:47.631Z,66.32
2023-04-18T08:01:10.620Z,65.56
2023-04-18T08:07:30.602Z,66.25
2023-04-18T08:13:53.759Z,66.19
2023-04-18T08:30:19.598Z,64.07
2023-04-18T08:36:42.583Z,65.44
2023-04-18T08:43:02.650Z,63.06
2023-04-18T08:49:25.759Z,63.16
2023-04-18T08:55:45.769Z,62.32
2023-04-18T09:02:08.998Z,62.13
2023-04-18T09:08:28.607Z,61.44
2023-04-18T09:14:51.619Z,61.06
2023-04-18T09:21:11.578Z,59.1
2023-04-18T09:27:34.640Z,59.12
2023-04-18T09:33:54.611Z,58.17
2023-04-18T09:40:17.599Z,58.75
2023-04-18T09:46:37.644Z,57.17
2023-04-18T09:53:00.632Z,57.35
2023-04-18T09:59:21.258Z,58.11
2023-04-18T10:05:43.672Z,57.53
2023-04-18T10:12:03.609Z,59.51
2023-04-18T10:18:26.608Z,58.87
2023-04-18T10:24:46.595Z,57.42
2023-04-18T10:31:09.620Z,58.15
2023-04-18T10:37:29.588Z,57.07
2023-04-18T10:43:52.636Z,57.14
2023-04-18T10:50:12.576Z,57.23
2023-04-18T10:56:35.635Z,58.34
2023-04-18T11:02:55.736Z,57.03
2023-04-18T11:09:18.584Z,55.59
2023-04-18T11:15:38.597Z,55.59
2023-04-18T11:22:01.756Z,56.61
2023-04-18T11:28:21.602Z,57.74
2023-04-18T11:34:44.610Z,58.78
2023-04-18T11:41:04.705Z,54.46
2023-04-18T11:47:27.626Z,55.33
2023-04-18T11:53:47.590Z,56.73
2023-04-18T12:00:10.656Z,54.53
2023-04-18T12:06:30.659Z,54.39
2023-04-18T12:12:53.583Z,53.15
2023-04-18T12:19:13.729Z,52.78
2023-04-18T12:25:36.611Z,52.96
2023-04-18T12:31:56.727Z,53.78
2023-04-18T12:38:19.622Z,55.33
2023-04-18T12:44:39.659Z,55.51
2023-04-18T12:51:02.582Z,56.56
2023-04-18T12:57:22.613Z,53.34
2023-04-18T13:03:48.830Z,52.68
2023-04-18T13:10:05.605Z,51.72
2023-04-18T13:16:28.698Z,49.58
2023-04-18T13:22:48.607Z,49.72
2023-04-18T13:29:11.651Z,48.22
2023-04-18T13:35:31.613Z,47.13
2023-04-18T13:41:54.579Z,45.92
2023-04-18T13:57:27.574Z,45.76
2023-04-18T14:03:47.687Z,45.78
2023-04-18T14:10:10.568Z,46.15
2023-04-18T14:16:32.241Z,47.32
2023-04-18T14:22:53.630Z,48.25
2023-04-18T14:29:13.838Z,48.95
2023-04-18T14:35:36.636Z,49.04
2023-04-18T14:41:56.576Z,49.33
2023-04-18T14:48:19.625Z,48.55
2023-04-18T14:54:39.626Z,48.23
2023-04-18T15:01:02.611Z,47.22
2023-04-18T15:07:22.575Z,47.54
2023-04-18T15:13:45.686Z,45.56
2023-04-18T15:20:05.600Z,46.49
2023-04-18T15:26:29.302Z,47.45
2023-04-18T15:32:48.651Z,48.14
2023-04-18T15:39:11.604Z,48
2023-04-18T15:45:31.597Z,46.1
2023-04-18T15:51:54.625Z,46.95
2023-04-18T15:58:14.576Z,48.39
2023-04-18T16:04:37.651Z,45.99
2023-04-18T16:10:57.610Z,47.88
2023-04-18T16:17:20.580Z,49.6
2023-04-18T16:23:40.579Z,50.43
2023-04-18T16:30:03.602Z,50.16
2023-04-18T16:36:23.593Z,50.05
2023-04-18T16:42:46.578Z,51.47
2023-04-18T16:49:06.707Z,50.71
2023-04-18T16:55:29.609Z,47.45
2023-04-18T17:01:49.685Z,47.45
2023-04-18T17:08:12.642Z,47.13
2023-04-18T17:14:32.586Z,47.85
2023-04-18T17:20:55.582Z,48.91
2023-04-18T17:27:15.648Z,50.6
2023-04-18T17:33:38.598Z,51.44
2023-04-18T17:39:58.576Z,52.58
2023-04-18T17:46:21.730Z,52.6
2023-04-18T17:52:41.581Z,53.34
2023-04-18T17:59:04.609Z,53.36
2023-04-18T18:05:24.623Z,54.24
2023-04-18T18:11:47.583Z,54.34
2023-04-18T18:18:07.647Z,54.67
2023-04-18T18:24:30.640Z,55.15
2023-04-18T18:30:50.662Z,56.21
2023-04-18T18:37:13.581Z,57.27
2023-04-18T18:43:33.638Z,57.68
2023-04-18T18:49:56.865Z,58.19
2023-04-18T18:56:16.893Z,58.25
2023-04-18T19:02:39.807Z,59.2
2023-04-18T19:08:59.571Z,59.17
2023-04-18T19:15:22.586Z,57.58
2023-04-18T19:31:48.636Z,57.93
2023-04-18T19:38:11.559Z,57.62
2023-04-18T19:44:31.593Z,58.07
2023-04-18T19:50:54.731Z,58.1
2023-04-18T19:57:14.589Z,58.62
2023-04-18T20:03:37.890Z,59.26
2023-04-18T20:09:57.607Z,59.36
2023-04-18T20:16:20.680Z,59.49
2023-04-18T20:22:40.584Z,59.36
2023-04-18T20:29:03.589Z,59.73
2023-04-18T20:35:23.630Z,59.86
2023-04-18T20:41:46.627Z,60.12
2023-04-18T20:48:06.622Z,60.35
2023-04-18T20:54:29.601Z,60.53
2023-04-18T21:00:49.627Z,61.05
2023-04-18T21:07:12.625Z,60.73
2023-04-18T21:13:32.581Z,61.33
2023-04-18T21:19:55.575Z,61.85
2023-04-18T21:26:15.629Z,61.6
2023-04-18T21:32:38.583Z,62.39
2023-04-18T21:38:58.607Z,62.75
2023-04-18T21:45:21.620Z,63.17
2023-04-18T21:51:41.564Z,63.61
2023-04-18T21:58:04.586Z,63.66
2023-04-18T22:21:01.604Z,63.63
2023-04-18T22:27:21.564Z,63.29
2023-04-18T22:33:44.578Z,64.03
2023-04-18T22:40:04.607Z,64.31
2023-04-18T22:46:27.669Z,64.26
2023-04-18T22:52:47.574Z,64.67
2023-04-18T22:59:10.701Z,64.92
2023-04-18T23:05:30.564Z,64.88
2023-04-18T23:11:53.600Z,65.29
2023-04-18T23:18:13.700Z,65.59
2023-04-18T23:24:36.643Z,65.31
2023-04-18T23:30:56.614Z,65.67
2023-04-18T23:37:19.678Z,65.91
2023-04-18T23:43:39.571Z,66.06
2023-04-18T23:50:02.666Z,66.63
2023-04-18T23:56:22.740Z,66.6
